sensor_id;sensor_type;location;lat;lon;timestamp;P1;durP1;ratioP1;P2;durP2;ratioP2
60502;SDS011;51448;51.660;5.824;2023-04-24T00:00:27;8.88;;;5.10;;
60502;SDS011;51448;51.660;5.824;2023-04-24T00:02:55;6.72;;;5.05;;
60502;SDS011;51448;51.660;5.824;2023-04-24T00:05:24;6.28;;;4.68;;
60502;SDS011;51448;51.660;5.824;2023-04-24T00:07:52;6.30;;;4.78;;
60502;SDS011;51448;51.660;5.824;2023-04-24T00:10:20;6.70;;;4.60;;
60502;SDS011;51448;51.660;5.824;2023-04-24T00:12:48;7.50;;;5.53;;
60502;SDS011;51448;51.660;5.824;2023-04-24T00:15:16;9.30;;;6.22;;
60502;SDS011;51448;51.660;5.824;2023-04-24T00:17:43;9.80;;;6.28;;
60502;SDS011;51448;51.660;5.824;2023-04-24T00:20:11;12.10;;;7.45;;
60502;SDS011;51448;51.660;5.824;2023-04-24T00:22:38;9.88;;;7.88;;
60502;SDS011;51448;51.660;5.824;2023-04-24T00:25:07;9.18;;;7.60;;
60502;SDS011;51448;51.660;5.824;2023-04-24T00:27:35;11.65;;;7.90;;
60502;SDS011;51448;51.660;5.824;2023-04-24T00:30:04;12.20;;;8.43;;
60502;SDS011;51448;51.660;5.824;2023-04-24T00:32:33;11.70;;;9.30;;
60502;SDS011;51448;51.660;5.824;2023-04-24T00:35:00;11.32;;;8.38;;
60502;SDS011;51448;51.660;5.824;2023-04-24T00:37:29;14.88;;;9.65;;
60502;SDS011;51448;51.660;5.824;2023-04-24T00:39:56;11.60;;;8.98;;
60502;SDS011;51448;51.660;5.824;2023-04-24T00:42:24;12.35;;;9.60;;
60502;SDS011;51448;51.660;5.824;2023-04-24T00:44:52;13.10;;;10.20;;
60502;SDS011;51448;51.660;5.824;2023-04-24T00:47:20;14.35;;;10.27;;
60502;SDS011;51448;51.660;5.824;2023-04-24T00:49:49;14.70;;;11.00;;
60502;SDS011;51448;51.660;5.824;2023-04-24T00:52:16;14.13;;;10.25;;
60502;SDS011;51448;51.660;5.824;2023-04-24T00:54:44;16.85;;;11.85;;
60502;SDS011;51448;51.660;5.824;2023-04-24T00:57:13;15.90;;;12.27;;
60502;SDS011;51448;51.660;5.824;2023-04-24T00:59:42;19.60;;;13.07;;
60502;SDS011;51448;51.660;5.824;2023-04-24T01:02:11;16.00;;;13.27;;
60502;SDS011;51448;51.660;5.824;2023-04-24T01:04:40;17.48;;;13.38;;
60502;SDS011;51448;51.660;5.824;2023-04-24T01:07:08;16.73;;;12.82;;
60502;SDS011;51448;51.660;5.824;2023-04-24T01:09:38;20.67;;;14.45;;
60502;SDS011;51448;51.660;5.824;2023-04-24T01:12:10;18.92;;;14.90;;
60502;SDS011;51448;51.660;5.824;2023-04-24T01:14:38;18.63;;;14.68;;
60502;SDS011;51448;51.660;5.824;2023-04-24T01:17:06;18.98;;;13.80;;
60502;SDS011;51448;51.660;5.824;2023-04-24T01:19:34;20.10;;;15.00;;
60502;SDS011;51448;51.660;5.824;2023-04-24T01:22:08;17.25;;;14.32;;
60502;SDS011;51448;51.660;5.824;2023-04-24T01:24:39;19.38;;;14.32;;
60502;SDS011;51448;51.660;5.824;2023-04-24T01:27:07;24.38;;;15.75;;
60502;SDS011;51448;51.660;5.824;2023-04-24T01:29:36;21.33;;;14.95;;
60502;SDS011;51448;51.660;5.824;2023-04-24T01:32:04;19.13;;;15.23;;
60502;SDS011;51448;51.660;5.824;2023-04-24T01:34:32;22.17;;;15.18;;
60502;SDS011;51448;51.660;5.824;2023-04-24T01:37:01;19.90;;;15.32;;
60502;SDS011;51448;51.660;5.824;2023-04-24T01:39:29;19.58;;;15.18;;
60502;SDS011;51448;51.660;5.824;2023-04-24T01:41:57;20.02;;;15.80;;
60502;SDS011;51448;51.660;5.824;2023-04-24T01:44:24;22.55;;;17.10;;
60502;SDS011;51448;51.660;5.824;2023-04-24T01:46:53;23.55;;;16.90;;
60502;SDS011;51448;51.660;5.824;2023-04-24T01:49:23;27.77;;;16.88;;
60502;SDS011;51448;51.660;5.824;2023-04-24T01:51:51;22.20;;;16.63;;
60502;SDS011;51448;51.660;5.824;2023-04-24T01:54:19;24.42;;;16.60;;
60502;SDS011;51448;51.660;5.824;2023-04-24T01:56:46;19.95;;;16.27;;
60502;SDS011;51448;51.660;5.824;2023-04-24T01:59:14;22.27;;;17.27;;
60502;SDS011;51448;51.660;5.824;2023-04-24T02:01:44;25.20;;;17.17;;
60502;SDS011;51448;51.660;5.824;2023-04-24T02:04:11;23.20;;;16.90;;
60502;SDS011;51448;51.660;5.824;2023-04-24T02:06:39;22.10;;;17.83;;
60502;SDS011;51448;51.660;5.824;2023-04-24T02:09:07;24.27;;;18.30;;
60502;SDS011;51448;51.660;5.824;2023-04-24T02:11:35;25.13;;;18.52;;
60502;SDS011;51448;51.660;5.824;2023-04-24T02:14:02;26.00;;;20.58;;
60502;SDS011;51448;51.660;5.824;2023-04-24T02:16:31;29.35;;;19.88;;
60502;SDS011;51448;51.660;5.824;2023-04-24T02:21:30;30.10;;;21.60;;
60502;SDS011;51448;51.660;5.824;2023-04-24T02:23:58;25.77;;;21.25;;
60502;SDS011;51448;51.660;5.824;2023-04-24T02:26:26;27.90;;;22.13;;
60502;SDS011;51448;51.660;5.824;2023-04-24T02:28:54;29.55;;;22.73;;
60502;SDS011;51448;51.660;5.824;2023-04-24T02:31:21;30.45;;;23.02;;
60502;SDS011;51448;51.660;5.824;2023-04-24T02:33:49;29.35;;;23.90;;
60502;SDS011;51448;51.660;5.824;2023-04-24T02:36:16;29.85;;;23.42;;
60502;SDS011;51448;51.660;5.824;2023-04-24T02:38:44;27.90;;;22.23;;
60502;SDS011;51448;51.660;5.824;2023-04-24T02:41:12;28.73;;;22.42;;
60502;SDS011;51448;51.660;5.824;2023-04-24T02:43:42;26.80;;;23.08;;
60502;SDS011;51448;51.660;5.824;2023-04-24T02:46:10;27.25;;;23.52;;
60502;SDS011;51448;51.660;5.824;2023-04-24T02:48:37;26.95;;;22.77;;
60502;SDS011;51448;51.660;5.824;2023-04-24T02:51:05;29.80;;;23.92;;
60502;SDS011;51448;51.660;5.824;2023-04-24T02:53:33;25.45;;;21.83;;
60502;SDS011;51448;51.660;5.824;2023-04-24T02:56:02;28.45;;;23.67;;
60502;SDS011;51448;51.660;5.824;2023-04-24T02:58:29;31.50;;;23.85;;
60502;SDS011;51448;51.660;5.824;2023-04-24T03:00:57;29.50;;;22.90;;
60502;SDS011;51448;51.660;5.824;2023-04-24T03:03:25;27.60;;;22.23;;
60502;SDS011;51448;51.660;5.824;2023-04-24T03:05:53;29.70;;;23.15;;
60502;SDS011;51448;51.660;5.824;2023-04-24T03:08:21;31.00;;;22.30;;
60502;SDS011;51448;51.660;5.824;2023-04-24T03:10:48;26.45;;;22.92;;
60502;SDS011;51448;51.660;5.824;2023-04-24T03:13:16;30.50;;;23.20;;
60502;SDS011;51448;51.660;5.824;2023-04-24T03:15:44;28.42;;;22.55;;
60502;SDS011;51448;51.660;5.824;2023-04-24T03:18:12;27.73;;;23.20;;
60502;SDS011;51448;51.660;5.824;2023-04-24T03:20:39;27.02;;;22.30;;
60502;SDS011;51448;51.660;5.824;2023-04-24T03:23:08;24.27;;;21.67;;
60502;SDS011;51448;51.660;5.824;2023-04-24T03:25:36;28.48;;;23.02;;
60502;SDS011;51448;51.660;5.824;2023-04-24T03:28:04;24.73;;;20.45;;
60502;SDS011;51448;51.660;5.824;2023-04-24T03:30:42;28.35;;;22.85;;
60502;SDS011;51448;51.660;5.824;2023-04-24T03:33:11;25.08;;;21.58;;
60502;SDS011;51448;51.660;5.824;2023-04-24T03:35:46;26.75;;;21.98;;
60502;SDS011;51448;51.660;5.824;2023-04-24T03:38:13;27.30;;;22.27;;
60502;SDS011;51448;51.660;5.824;2023-04-24T03:41:00;27.58;;;20.70;;
60502;SDS011;51448;51.660;5.824;2023-04-24T03:43:42;26.48;;;21.58;;
60502;SDS011;51448;51.660;5.824;2023-04-24T03:46:10;27.42;;;21.92;;
60502;SDS011;51448;51.660;5.824;2023-04-24T03:48:42;26.90;;;21.35;;
60502;SDS011;51448;51.660;5.824;2023-04-24T03:51:10;28.10;;;21.48;;
60502;SDS011;51448;51.660;5.824;2023-04-24T03:53:42;26.75;;;21.08;;
60502;SDS011;51448;51.660;5.824;2023-04-24T03:56:11;25.40;;;20.50;;
60502;SDS011;51448;51.660;5.824;2023-04-24T03:58:40;26.13;;;20.75;;
60502;SDS011;51448;51.660;5.824;2023-04-24T04:01:09;24.90;;;19.45;;
60502;SDS011;51448;51.660;5.824;2023-04-24T04:03:49;28.55;;;20.70;;
60502;SDS011;51448;51.660;5.824;2023-04-24T04:06:20;25.52;;;19.20;;
60502;SDS011;51448;51.660;5.824;2023-04-24T04:08:50;23.42;;;19.23;;
60502;SDS011;51448;51.660;5.824;2023-04-24T04:11:18;23.63;;;19.35;;
60502;SDS011;51448;51.660;5.824;2023-04-24T04:13:45;24.75;;;18.25;;
60502;SDS011;51448;51.660;5.824;2023-04-24T04:16:17;21.48;;;18.05;;
60502;SDS011;51448;51.660;5.824;2023-04-24T04:18:47;23.13;;;17.85;;
60502;SDS011;51448;51.660;5.824;2023-04-24T04:21:15;24.63;;;17.30;;
60502;SDS011;51448;51.660;5.824;2023-04-24T04:23:43;23.95;;;18.08;;
60502;SDS011;51448;51.660;5.824;2023-04-24T04:26:18;22.73;;;17.08;;
60502;SDS011;51448;51.660;5.824;2023-04-24T04:29:04;19.00;;;16.50;;
60502;SDS011;51448;51.660;5.824;2023-04-24T04:31:33;21.50;;;17.58;;
60502;SDS011;51448;51.660;5.824;2023-04-24T04:34:06;25.10;;;16.80;;
60502;SDS011;51448;51.660;5.824;2023-04-24T04:36:35;25.55;;;16.95;;
60502;SDS011;51448;51.660;5.824;2023-04-24T04:39:20;19.20;;;15.05;;
60502;SDS011;51448;51.660;5.824;2023-04-24T04:41:56;21.85;;;15.32;;
60502;SDS011;51448;51.660;5.824;2023-04-24T04:44:40;20.27;;;15.98;;
60502;SDS011;51448;51.660;5.824;2023-04-24T04:49:40;20.88;;;14.50;;
60502;SDS011;51448;51.660;5.824;2023-04-24T04:52:15;20.58;;;15.63;;
60502;SDS011;51448;51.660;5.824;2023-04-24T04:54:47;17.50;;;15.07;;
60502;SDS011;51448;51.660;5.824;2023-04-24T04:57:14;16.02;;;13.85;;
60502;SDS011;51448;51.660;5.824;2023-04-24T04:59:42;18.17;;;14.63;;
60502;SDS011;51448;51.660;5.824;2023-04-24T05:02:16;17.08;;;14.95;;
60502;SDS011;51448;51.660;5.824;2023-04-24T05:04:46;19.13;;;13.95;;
60502;SDS011;51448;51.660;5.824;2023-04-24T05:07:15;17.38;;;14.07;;
60502;SDS011;51448;51.660;5.824;2023-04-24T05:09:47;16.00;;;13.73;;
60502;SDS011;51448;51.660;5.824;2023-04-24T05:12:15;15.13;;;13.50;;
60502;SDS011;51448;51.660;5.824;2023-04-24T05:14:49;15.73;;;13.43;;
60502;SDS011;51448;51.660;5.824;2023-04-24T05:17:17;14.45;;;12.38;;
60502;SDS011;51448;51.660;5.824;2023-04-24T05:19:45;14.60;;;12.82;;
60502;SDS011;51448;51.660;5.824;2023-04-24T05:22:14;16.35;;;13.27;;
60502;SDS011;51448;51.660;5.824;2023-04-24T05:24:48;13.95;;;12.05;;
60502;SDS011;51448;51.660;5.824;2023-04-24T05:27:36;14.68;;;12.35;;
60502;SDS011;51448;51.660;5.824;2023-04-24T05:30:09;14.45;;;11.75;;
60502;SDS011;51448;51.660;5.824;2023-04-24T05:32:37;14.52;;;12.07;;
60502;SDS011;51448;51.660;5.824;2023-04-24T05:35:05;13.68;;;11.73;;
60502;SDS011;51448;51.660;5.824;2023-04-24T05:37:33;12.18;;;10.40;;
60502;SDS011;51448;51.660;5.824;2023-04-24T05:40:01;12.40;;;10.55;;
60502;SDS011;51448;51.660;5.824;2023-04-24T05:42:31;12.98;;;10.25;;
60502;SDS011;51448;51.660;5.824;2023-04-24T05:44:59;13.38;;;10.43;;
60502;SDS011;51448;51.660;5.824;2023-04-24T05:47:27;11.75;;;9.80;;
60502;SDS011;51448;51.660;5.824;2023-04-24T05:49:54;12.73;;;10.15;;
60502;SDS011;51448;51.660;5.824;2023-04-24T05:52:24;13.05;;;10.60;;
60502;SDS011;51448;51.660;5.824;2023-04-24T05:54:51;14.38;;;10.52;;
60502;SDS011;51448;51.660;5.824;2023-04-24T05:57:23;13.93;;;10.73;;
60502;SDS011;51448;51.660;5.824;2023-04-24T05:59:59;12.57;;;10.52;;
60502;SDS011;51448;51.660;5.824;2023-04-24T06:02:28;14.52;;;10.88;;
60502;SDS011;51448;51.660;5.824;2023-04-24T06:09:58;12.55;;;9.90;;
60502;SDS011;51448;51.660;5.824;2023-04-24T06:12:36;11.15;;;9.90;;
60502;SDS011;51448;51.660;5.824;2023-04-24T06:15:09;13.32;;;10.25;;
60502;SDS011;51448;51.660;5.824;2023-04-24T06:17:50;13.20;;;11.25;;
60502;SDS011;51448;51.660;5.824;2023-04-24T06:20:19;12.65;;;9.27;;
60502;SDS011;51448;51.660;5.824;2023-04-24T06:22:47;9.93;;;7.15;;
60502;SDS011;51448;51.660;5.824;2023-04-24T06:25:15;8.80;;;6.72;;
60502;SDS011;51448;51.660;5.824;2023-04-24T06:27:43;8.77;;;6.18;;
60502;SDS011;51448;51.660;5.824;2023-04-24T06:30:10;8.75;;;6.15;;
60502;SDS011;51448;51.660;5.824;2023-04-24T06:32:39;8.40;;;5.65;;
60502;SDS011;51448;51.660;5.824;2023-04-24T06:35:07;6.70;;;4.43;;
60502;SDS011;51448;51.660;5.824;2023-04-24T06:37:41;6.32;;;3.75;;
60502;SDS011;51448;51.660;5.824;2023-04-24T06:40:10;4.95;;;2.70;;
60502;SDS011;51448;51.660;5.824;2023-04-24T06:42:40;4.70;;;2.60;;
60502;SDS011;51448;51.660;5.824;2023-04-24T06:45:08;4.60;;;2.53;;
60502;SDS011;51448;51.660;5.824;2023-04-24T06:47:39;5.13;;;2.80;;
60502;SDS011;51448;51.660;5.824;2023-04-24T06:50:07;5.72;;;2.60;;
60502;SDS011;51448;51.660;5.824;2023-04-24T06:52:35;3.80;;;2.17;;
60502;SDS011;51448;51.660;5.824;2023-04-24T06:55:03;4.70;;;2.28;;
60502;SDS011;51448;51.660;5.824;2023-04-24T06:57:31;4.80;;;1.98;;
60502;SDS011;51448;51.660;5.824;2023-04-24T06:59:59;4.32;;;1.50;;
60502;SDS011;51448;51.660;5.824;2023-04-24T07:02:27;2.92;;;1.25;;
60502;SDS011;51448;51.660;5.824;2023-04-24T07:04:54;4.85;;;1.70;;
60502;SDS011;51448;51.660;5.824;2023-04-24T07:07:22;3.03;;;1.08;;
60502;SDS011;51448;51.660;5.824;2023-04-24T07:09:51;4.05;;;1.00;;
60502;SDS011;51448;51.660;5.824;2023-04-24T07:12:19;2.00;;;0.70;;
60502;SDS011;51448;51.660;5.824;2023-04-24T07:14:50;3.10;;;0.70;;
60502;SDS011;51448;51.660;5.824;2023-04-24T07:17:17;2.65;;;0.93;;
60502;SDS011;51448;51.660;5.824;2023-04-24T07:19:45;2.10;;;0.95;;
60502;SDS011;51448;51.660;5.824;2023-04-24T07:22:13;2.70;;;0.90;;
60502;SDS011;51448;51.660;5.824;2023-04-24T07:24:44;2.23;;;0.80;;
60502;SDS011;51448;51.660;5.824;2023-04-24T07:27:12;4.32;;;1.15;;
60502;SDS011;51448;51.660;5.824;2023-04-24T07:29:42;6.15;;;1.73;;
60502;SDS011;51448;51.660;5.824;2023-04-24T07:32:10;4.50;;;1.90;;
60502;SDS011;51448;51.660;5.824;2023-04-24T07:34:38;5.38;;;2.72;;
60502;SDS011;51448;51.660;5.824;2023-04-24T07:37:05;7.72;;;3.28;;
60502;SDS011;51448;51.660;5.824;2023-04-24T07:39:33;8.68;;;4.07;;
60502;SDS011;51448;51.660;5.824;2023-04-24T07:42:01;8.88;;;5.45;;
60502;SDS011;51448;51.660;5.824;2023-04-24T07:44:29;10.88;;;7.35;;
60502;SDS011;51448;51.660;5.824;2023-04-24T07:46:57;14.23;;;8.85;;
60502;SDS011;51448;51.660;5.824;2023-04-24T07:49:25;13.63;;;9.93;;
60502;SDS011;51448;51.660;5.824;2023-04-24T07:51:54;15.55;;;10.27;;
60502;SDS011;51448;51.660;5.824;2023-04-24T07:54:22;14.32;;;10.05;;
60502;SDS011;51448;51.660;5.824;2023-04-24T07:56:50;18.10;;;10.02;;
60502;SDS011;51448;51.660;5.824;2023-04-24T07:59:17;15.80;;;11.13;;
60502;SDS011;51448;51.660;5.824;2023-04-24T08:01:45;17.65;;;11.27;;
60502;SDS011;51448;51.660;5.824;2023-04-24T08:04:14;15.18;;;11.43;;
60502;SDS011;51448;51.660;5.824;2023-04-24T08:06:42;17.17;;;12.00;;
60502;SDS011;51448;51.660;5.824;2023-04-24T08:09:10;16.08;;;10.95;;
60502;SDS011;51448;51.660;5.824;2023-04-24T08:11:37;19.27;;;12.23;;
60502;SDS011;51448;51.660;5.824;2023-04-24T08:14:05;19.23;;;10.60;;
60502;SDS011;51448;51.660;5.824;2023-04-24T08:16:35;18.08;;;10.70;;
60502;SDS011;51448;51.660;5.824;2023-04-24T08:19:03;18.63;;;10.50;;
60502;SDS011;51448;51.660;5.824;2023-04-24T08:21:31;14.43;;;9.48;;
60502;SDS011;51448;51.660;5.824;2023-04-24T08:23:59;17.65;;;9.85;;
60502;SDS011;51448;51.660;5.824;2023-04-24T08:26:28;18.77;;;10.63;;
60502;SDS011;51448;51.660;5.824;2023-04-24T08:28:57;15.60;;;10.43;;
60502;SDS011;51448;51.660;5.824;2023-04-24T08:31:25;21.17;;;9.93;;
60502;SDS011;51448;51.660;5.824;2023-04-24T08:33:57;21.40;;;10.68;;
60502;SDS011;51448;51.660;5.824;2023-04-24T08:36:27;18.50;;;10.65;;
60502;SDS011;51448;51.660;5.824;2023-04-24T08:39:10;21.90;;;10.48;;
60502;SDS011;51448;51.660;5.824;2023-04-24T08:41:37;21.10;;;9.95;;
60502;SDS011;51448;51.660;5.824;2023-04-24T08:44:10;19.30;;;10.65;;
60502;SDS011;51448;51.660;5.824;2023-04-24T08:46:39;23.10;;;11.00;;
60502;SDS011;51448;51.660;5.824;2023-04-24T08:49:08;17.42;;;8.70;;
60502;SDS011;51448;51.660;5.824;2023-04-24T08:51:36;16.63;;;7.28;;
60502;SDS011;51448;51.660;5.824;2023-04-24T08:54:05;15.45;;;6.28;;
60502;SDS011;51448;51.660;5.824;2023-04-24T08:56:34;14.10;;;5.40;;
60502;SDS011;51448;51.660;5.824;2023-04-24T08:59:08;17.08;;;6.05;;
60502;SDS011;51448;51.660;5.824;2023-04-24T09:01:37;18.23;;;5.25;;
60502;SDS011;51448;51.660;5.824;2023-04-24T09:04:08;17.23;;;5.05;;
60502;SDS011;51448;51.660;5.824;2023-04-24T09:06:42;16.65;;;5.13;;
60502;SDS011;51448;51.660;5.824;2023-04-24T09:09:10;17.00;;;5.18;;
60502;SDS011;51448;51.660;5.824;2023-04-24T09:11:38;17.92;;;5.35;;
60502;SDS011;51448;51.660;5.824;2023-04-24T09:14:07;21.98;;;5.80;;
60502;SDS011;51448;51.660;5.824;2023-04-24T09:16:39;15.13;;;5.35;;
60502;SDS011;51448;51.660;5.824;2023-04-24T09:19:07;17.20;;;5.47;;
60502;SDS011;51448;51.660;5.824;2023-04-24T09:21:35;20.98;;;6.28;;
60502;SDS011;51448;51.660;5.824;2023-04-24T09:24:05;16.17;;;4.80;;
60502;SDS011;51448;51.660;5.824;2023-04-24T09:26:41;14.40;;;4.72;;
60502;SDS011;51448;51.660;5.824;2023-04-24T09:29:13;15.95;;;4.88;;
60502;SDS011;51448;51.660;5.824;2023-04-24T09:31:45;15.45;;;4.85;;
60502;SDS011;51448;51.660;5.824;2023-04-24T09:34:13;14.75;;;5.05;;
60502;SDS011;51448;51.660;5.824;2023-04-24T09:36:41;18.27;;;4.97;;
60502;SDS011;51448;51.660;5.824;2023-04-24T09:39:11;21.67;;;4.88;;
60502;SDS011;51448;51.660;5.824;2023-04-24T09:44:34;16.20;;;3.83;;
60502;SDS011;51448;51.660;5.824;2023-04-24T09:47:04;19.08;;;4.72;;
60502;SDS011;51448;51.660;5.824;2023-04-24T09:49:37;15.30;;;3.88;;
60502;SDS011;51448;51.660;5.824;2023-04-24T09:52:08;16.90;;;4.20;;
60502;SDS011;51448;51.660;5.824;2023-04-24T09:57:07;16.45;;;4.85;;
60502;SDS011;51448;51.660;5.824;2023-04-24T09:59:38;14.80;;;3.92;;
60502;SDS011;51448;51.660;5.824;2023-04-24T10:02:18;11.07;;;3.45;;
60502;SDS011;51448;51.660;5.824;2023-04-24T10:04:54;11.77;;;2.92;;
60502;SDS011;51448;51.660;5.824;2023-04-24T10:07:25;13.15;;;3.55;;
60502;SDS011;51448;51.660;5.824;2023-04-24T10:09:54;11.27;;;3.00;;
60502;SDS011;51448;51.660;5.824;2023-04-24T10:12:22;12.18;;;3.40;;
60502;SDS011;51448;51.660;5.824;2023-04-24T10:14:52;11.70;;;3.25;;
60502;SDS011;51448;51.660;5.824;2023-04-24T10:17:21;12.63;;;3.50;;
60502;SDS011;51448;51.660;5.824;2023-04-24T10:19:51;11.60;;;2.67;;
60502;SDS011;51448;51.660;5.824;2023-04-24T10:22:19;9.48;;;3.50;;
60502;SDS011;51448;51.660;5.824;2023-04-24T10:24:52;9.75;;;3.33;;
60502;SDS011;51448;51.660;5.824;2023-04-24T10:27:20;11.95;;;3.28;;
60502;SDS011;51448;51.660;5.824;2023-04-24T10:29:50;13.43;;;2.85;;
60502;SDS011;51448;51.660;5.824;2023-04-24T10:32:20;11.13;;;3.10;;
60502;SDS011;51448;51.660;5.824;2023-04-24T10:34:48;14.95;;;3.50;;
60502;SDS011;51448;51.660;5.824;2023-04-24T10:37:15;13.93;;;3.60;;
60502;SDS011;51448;51.660;5.824;2023-04-24T10:39:47;11.75;;;3.58;;
60502;SDS011;51448;51.660;5.824;2023-04-24T10:42:18;11.82;;;3.42;;
60502;SDS011;51448;51.660;5.824;2023-04-24T10:44:47;12.55;;;3.78;;
60502;SDS011;51448;51.660;5.824;2023-04-24T10:47:16;14.57;;;3.40;;
60502;SDS011;51448;51.660;5.824;2023-04-24T10:49:44;10.48;;;3.00;;
60502;SDS011;51448;51.660;5.824;2023-04-24T10:52:12;11.60;;;3.03;;
60502;SDS011;51448;51.660;5.824;2023-04-24T10:54:45;9.48;;;2.80;;
60502;SDS011;51448;51.660;5.824;2023-04-24T10:59:45;7.47;;;2.20;;
60502;SDS011;51448;51.660;5.824;2023-04-24T11:02:14;9.82;;;2.00;;
60502;SDS011;51448;51.660;5.824;2023-04-24T11:04:43;7.65;;;1.83;;
60502;SDS011;51448;51.660;5.824;2023-04-24T11:07:12;8.55;;;1.90;;
60502;SDS011;51448;51.660;5.824;2023-04-24T11:09:42;8.23;;;2.00;;
60502;SDS011;51448;51.660;5.824;2023-04-24T11:12:16;8.40;;;1.90;;
60502;SDS011;51448;51.660;5.824;2023-04-24T11:17:32;6.78;;;1.90;;
60502;SDS011;51448;51.660;5.824;2023-04-24T11:20:09;7.65;;;2.33;;
60502;SDS011;51448;51.660;5.824;2023-04-24T11:22:54;4.93;;;1.30;;
60502;SDS011;51448;51.660;5.824;2023-04-24T11:25:24;4.75;;;1.20;;
60502;SDS011;51448;51.660;5.824;2023-04-24T11:28:02;4.78;;;1.20;;
60502;SDS011;51448;51.660;5.824;2023-04-24T11:30:32;4.85;;;1.45;;
60502;SDS011;51448;51.660;5.824;2023-04-24T11:33:04;5.45;;;1.60;;
60502;SDS011;51448;51.660;5.824;2023-04-24T11:35:39;7.55;;;1.70;;
60502;SDS011;51448;51.660;5.824;2023-04-24T11:38:07;5.43;;;1.10;;
60502;SDS011;51448;51.660;5.824;2023-04-24T11:40:40;6.07;;;1.45;;
60502;SDS011;51448;51.660;5.824;2023-04-24T11:43:09;3.95;;;1.23;;
60502;SDS011;51448;51.660;5.824;2023-04-24T11:45:38;5.18;;;1.15;;
60502;SDS011;51448;51.660;5.824;2023-04-24T11:48:19;4.47;;;1.35;;
60502;SDS011;51448;51.660;5.824;2023-04-24T11:50:50;6.93;;;1.25;;
60502;SDS011;51448;51.660;5.824;2023-04-24T11:53:19;5.88;;;1.50;;
60502;SDS011;51448;51.660;5.824;2023-04-24T11:55:51;7.82;;;1.55;;
60502;SDS011;51448;51.660;5.824;2023-04-24T11:58:20;5.13;;;1.58;;
60502;SDS011;51448;51.660;5.824;2023-04-24T12:00:55;6.72;;;1.23;;
60502;SDS011;51448;51.660;5.824;2023-04-24T12:03:25;5.18;;;1.50;;
60502;SDS011;51448;51.660;5.824;2023-04-24T12:06:03;5.32;;;1.67;;
60502;SDS011;51448;51.660;5.824;2023-04-24T12:08:35;3.63;;;1.00;;
60502;SDS011;51448;51.660;5.824;2023-04-24T12:11:05;5.85;;;1.48;;
60502;SDS011;51448;51.660;5.824;2023-04-24T12:13:35;8.27;;;1.33;;
60502;SDS011;51448;51.660;5.824;2023-04-24T12:16:03;5.82;;;1.50;;
60502;SDS011;51448;51.660;5.824;2023-04-24T12:18:32;6.43;;;1.42;;
60502;SDS011;51448;51.660;5.824;2023-04-24T12:21:19;9.30;;;2.30;;
60502;SDS011;51448;51.660;5.824;2023-04-24T12:24:00;6.25;;;1.90;;
60502;SDS011;51448;51.660;5.824;2023-04-24T12:26:28;6.93;;;1.97;;
60502;SDS011;51448;51.660;5.824;2023-04-24T12:28:56;7.32;;;2.17;;
60502;SDS011;51448;51.660;5.824;2023-04-24T12:31:31;8.93;;;2.30;;
60502;SDS011;51448;51.660;5.824;2023-04-24T12:33:59;6.70;;;2.10;;
60502;SDS011;51448;51.660;5.824;2023-04-24T12:36:27;8.00;;;2.03;;
60502;SDS011;51448;51.660;5.824;2023-04-24T12:38:55;7.38;;;1.88;;
60502;SDS011;51448;51.660;5.824;2023-04-24T12:41:23;8.15;;;1.80;;
60502;SDS011;51448;51.660;5.824;2023-04-24T12:43:53;9.57;;;1.65;;
60502;SDS011;51448;51.660;5.824;2023-04-24T12:46:22;8.43;;;1.85;;
60502;SDS011;51448;51.660;5.824;2023-04-24T12:48:50;11.57;;;2.05;;
60502;SDS011;51448;51.660;5.824;2023-04-24T12:51:17;8.52;;;2.05;;
60502;SDS011;51448;51.660;5.824;2023-04-24T12:53:45;7.13;;;1.80;;
60502;SDS011;51448;51.660;5.824;2023-04-24T12:56:13;10.23;;;1.92;;
60502;SDS011;51448;51.660;5.824;2023-04-24T12:58:40;8.23;;;1.85;;
60502;SDS011;51448;51.660;5.824;2023-04-24T13:01:08;9.15;;;1.80;;
60502;SDS011;51448;51.660;5.824;2023-04-24T13:03:35;7.07;;;1.80;;
60502;SDS011;51448;51.660;5.824;2023-04-24T13:06:03;6.10;;;1.92;;
60502;SDS011;51448;51.660;5.824;2023-04-24T13:08:31;10.20;;;2.50;;
60502;SDS011;51448;51.660;5.824;2023-04-24T13:10:59;8.25;;;2.42;;
60502;SDS011;51448;51.660;5.824;2023-04-24T13:13:27;8.35;;;2.60;;
60502;SDS011;51448;51.660;5.824;2023-04-24T13:15:54;6.85;;;1.77;;
60502;SDS011;51448;51.660;5.824;2023-04-24T13:18:22;9.32;;;1.98;;
60502;SDS011;51448;51.660;5.824;2023-04-24T13:20:50;5.65;;;1.80;;
60502;SDS011;51448;51.660;5.824;2023-04-24T13:23:28;7.80;;;1.92;;
60502;SDS011;51448;51.660;5.824;2023-04-24T13:25:56;6.40;;;1.60;;
60502;SDS011;51448;51.660;5.824;2023-04-24T13:28:24;5.38;;;1.23;;
60502;SDS011;51448;51.660;5.824;2023-04-24T13:30:52;4.35;;;1.20;;
60502;SDS011;51448;51.660;5.824;2023-04-24T13:33:20;6.32;;;1.90;;
60502;SDS011;51448;51.660;5.824;2023-04-24T13:35:47;6.78;;;1.45;;
60502;SDS011;51448;51.660;5.824;2023-04-24T13:38:15;6.25;;;1.50;;
60502;SDS011;51448;51.660;5.824;2023-04-24T13:40:43;4.38;;;1.50;;
60502;SDS011;51448;51.660;5.824;2023-04-24T13:43:11;6.78;;;1.65;;
60502;SDS011;51448;51.660;5.824;2023-04-24T13:45:38;6.85;;;1.70;;
60502;SDS011;51448;51.660;5.824;2023-04-24T13:48:06;6.80;;;1.60;;
60502;SDS011;51448;51.660;5.824;2023-04-24T13:50:34;5.63;;;1.70;;
60502;SDS011;51448;51.660;5.824;2023-04-24T13:53:02;5.60;;;1.80;;
60502;SDS011;51448;51.660;5.824;2023-04-24T13:55:30;8.38;;;2.05;;
60502;SDS011;51448;51.660;5.824;2023-04-24T13:58:00;8.52;;;2.30;;
60502;SDS011;51448;51.660;5.824;2023-04-24T14:00:29;7.30;;;2.17;;
60502;SDS011;51448;51.660;5.824;2023-04-24T14:02:58;7.70;;;1.95;;
60502;SDS011;51448;51.660;5.824;2023-04-24T14:05:26;5.57;;;1.70;;
60502;SDS011;51448;51.660;5.824;2023-04-24T14:07:53;4.93;;;1.50;;
60502;SDS011;51448;51.660;5.824;2023-04-24T14:10:21;4.88;;;1.75;;
60502;SDS011;51448;51.660;5.824;2023-04-24T14:12:49;5.20;;;1.30;;
60502;SDS011;51448;51.660;5.824;2023-04-24T14:15:18;7.63;;;1.45;;
60502;SDS011;51448;51.660;5.824;2023-04-24T14:17:47;6.55;;;1.80;;
60502;SDS011;51448;51.660;5.824;2023-04-24T14:20:16;5.85;;;1.40;;
60502;SDS011;51448;51.660;5.824;2023-04-24T14:22:44;4.00;;;1.35;;
60502;SDS011;51448;51.660;5.824;2023-04-24T14:25:12;4.80;;;1.63;;
60502;SDS011;51448;51.660;5.824;2023-04-24T14:27:39;6.10;;;1.60;;
60502;SDS011;51448;51.660;5.824;2023-04-24T14:30:07;5.90;;;1.80;;
60502;SDS011;51448;51.660;5.824;2023-04-24T14:32:35;6.03;;;2.00;;
60502;SDS011;51448;51.660;5.824;2023-04-24T14:35:03;8.15;;;2.30;;
60502;SDS011;51448;51.660;5.824;2023-04-24T14:37:31;5.82;;;1.60;;
60502;SDS011;51448;51.660;5.824;2023-04-24T14:39:59;9.15;;;2.38;;
60502;SDS011;51448;51.660;5.824;2023-04-24T14:42:47;8.32;;;2.58;;
60502;SDS011;51448;51.660;5.824;2023-04-24T14:45:17;6.00;;;2.08;;
60502;SDS011;51448;51.660;5.824;2023-04-24T14:47:45;5.32;;;2.20;;
60502;SDS011;51448;51.660;5.824;2023-04-24T14:50:13;9.15;;;2.47;;
60502;SDS011;51448;51.660;5.824;2023-04-24T14:52:40;8.35;;;2.40;;
60502;SDS011;51448;51.660;5.824;2023-04-24T14:55:08;6.60;;;2.50;;
60502;SDS011;51448;51.660;5.824;2023-04-24T14:57:35;8.90;;;2.55;;
60502;SDS011;51448;51.660;5.824;2023-04-24T15:00:04;8.95;;;3.28;;
60502;SDS011;51448;51.660;5.824;2023-04-24T15:02:37;5.60;;;2.20;;
60502;SDS011;51448;51.660;5.824;2023-04-24T15:05:09;7.97;;;2.28;;
60502;SDS011;51448;51.660;5.824;2023-04-24T15:07:38;9.73;;;2.42;;